createdAt,value
2024-02-23T00:01:49.749Z,0.43
2024-02-23T00:04:17.243Z,0.60
2024-02-23T00:06:44.190Z,0.63
2024-02-23T00:09:11.372Z,0.73
2024-02-23T00:11:45.553Z,0.47
2024-02-23T00:14:14.188Z,0.40
2024-02-23T00:16:42.144Z,0.60
2024-02-23T00:19:12.340Z,0.40
2024-02-23T00:21:40.023Z,0.50
2024-02-23T00:24:07.985Z,0.60
2024-02-23T00:26:34.970Z,0.77
2024-02-23T00:29:01.867Z,0.50
2024-02-23T00:31:28.764Z,0.50
2024-02-23T00:33:55.733Z,0.63
2024-02-23T00:36:22.706Z,0.67
2024-02-23T00:38:49.572Z,0.40
2024-02-23T00:41:16.449Z,0.73
2024-02-23T00:43:43.398Z,0.50
2024-02-23T00:46:10.675Z,0.63
2024-02-23T00:48:37.804Z,0.70
2024-02-23T00:51:05.215Z,0.60
2024-02-23T00:53:33.309Z,0.50
2024-02-23T00:56:00.368Z,0.60
2024-02-23T00:58:27.416Z,0.70
2024-02-23T01:00:54.461Z,0.60
2024-02-23T01:03:21.447Z,0.60
2024-02-23T01:05:48.572Z,0.57
2024-02-23T01:08:15.611Z,0.60
2024-02-23T01:10:42.768Z,0.50
2024-02-23T01:13:09.802Z,0.60
2024-02-23T01:15:36.799Z,0.60
2024-02-23T01:18:07.081Z,0.60
2024-02-23T01:20:33.989Z,0.40
2024-02-23T01:23:01.503Z,0.47
2024-02-23T01:25:28.383Z,0.60
2024-02-23T01:27:55.323Z,0.50
2024-02-23T01:30:22.194Z,0.43
2024-02-23T01:32:51.176Z,0.50
2024-02-23T01:35:18.293Z,0.50
2024-02-23T01:37:45.272Z,0.60
2024-02-23T01:40:12.478Z,0.70
2024-02-23T01:42:39.697Z,0.80
2024-02-23T01:45:08.111Z,0.70
2024-02-23T01:47:35.147Z,0.90
2024-02-23T01:50:02.968Z,0.70
2024-02-23T01:52:30.809Z,0.73
2024-02-23T01:54:58.005Z,0.77
2024-02-23T01:57:39.936Z,0.60
2024-02-23T02:00:17.730Z,0.90
2024-02-23T02:02:45.959Z,0.50
2024-02-23T02:05:13.569Z,0.50
2024-02-23T02:07:45.666Z,0.63
2024-02-23T02:10:13.532Z,0.50
2024-02-23T02:12:40.431Z,0.50
2024-02-23T02:15:08.139Z,0.53
2024-02-23T02:17:38.116Z,0.60
2024-02-23T02:20:08.166Z,0.70
2024-02-23T02:22:35.302Z,0.60
2024-02-23T02:25:02.487Z,0.60
2024-02-23T02:27:29.734Z,0.60
2024-02-23T02:29:59.614Z,0.50
2024-02-23T02:32:26.632Z,0.50
2024-02-23T02:34:53.651Z,0.50
2024-02-23T02:37:20.532Z,0.60
2024-02-23T02:39:47.400Z,0.60
2024-02-23T02:42:14.523Z,0.50
2024-02-23T02:44:41.432Z,0.53
2024-02-23T02:47:08.524Z,0.60
2024-02-23T02:49:35.517Z,0.50
2024-02-23T02:52:02.870Z,0.50
2024-02-23T02:54:29.786Z,0.60
2024-02-23T02:56:56.676Z,0.63
2024-02-23T02:59:28.419Z,0.70
2024-02-23T03:01:56.424Z,0.50
2024-02-23T03:04:23.418Z,0.50
2024-02-23T03:06:50.331Z,0.60
2024-02-23T03:09:17.221Z,0.50
2024-02-23T03:11:44.252Z,0.50
2024-02-23T03:14:11.423Z,0.43
2024-02-23T03:16:38.710Z,0.50
2024-02-23T03:19:05.877Z,0.50
2024-02-23T03:21:32.818Z,0.50
2024-02-23T03:23:59.675Z,0.60
2024-02-23T03:26:26.671Z,0.70
2024-02-23T03:28:53.678Z,0.43
2024-02-23T03:31:20.653Z,0.50
2024-02-23T03:33:47.592Z,0.57
2024-02-23T03:36:14.517Z,0.60
2024-02-23T03:38:41.609Z,0.50
2024-02-23T03:41:08.584Z,0.80
2024-02-23T03:43:35.947Z,0.60
2024-02-23T03:46:02.882Z,0.60
2024-02-23T03:48:29.778Z,0.60
2024-02-23T03:50:56.991Z,0.50
2024-02-23T03:53:23.945Z,0.50
2024-02-23T03:55:50.866Z,0.57
2024-02-23T03:58:17.873Z,0.60
2024-02-23T04:00:45.117Z,0.53
2024-02-23T04:03:12.145Z,0.47
2024-02-23T04:05:39.180Z,0.60
2024-02-23T04:08:06.819Z,0.50
2024-02-23T04:10:33.942Z,0.50
2024-02-23T04:13:02.301Z,0.50
2024-02-23T04:15:29.292Z,0.67
2024-02-23T04:17:56.272Z,0.50
2024-02-23T04:20:23.441Z,0.60
2024-02-23T04:22:50.403Z,0.50
2024-02-23T04:25:17.372Z,0.60
2024-02-23T04:27:44.663Z,0.50
2024-02-23T04:30:13.129Z,0.60
2024-02-23T04:32:40.676Z,0.70
2024-02-23T04:35:08.225Z,0.90
2024-02-23T04:37:36.886Z,0.80
2024-02-23T04:40:07.890Z,0.43
2024-02-23T04:42:34.864Z,0.50
2024-02-23T04:45:01.734Z,0.70
2024-02-23T04:47:28.811Z,0.50
2024-02-23T04:49:55.803Z,0.73
2024-02-23T04:52:22.739Z,0.77
2024-02-23T04:54:49.690Z,0.50
2024-02-23T04:57:16.635Z,0.57
2024-02-23T04:59:43.946Z,0.50
2024-02-23T05:02:10.935Z,0.60
2024-02-23T05:04:38.084Z,0.80
2024-02-23T05:07:05.591Z,0.80
2024-02-23T05:09:33.367Z,0.63
2024-02-23T05:12:00.697Z,0.57
2024-02-23T05:14:28.160Z,0.70
2024-02-23T05:16:55.124Z,0.60
2024-02-23T05:19:22.368Z,0.60
2024-02-23T05:21:49.306Z,0.53
2024-02-23T05:24:16.386Z,0.50
2024-02-23T05:26:45.305Z,0.50
2024-02-23T05:29:13.991Z,0.60
2024-02-23T05:31:50.037Z,0.50
2024-02-23T05:34:17.039Z,0.70
2024-02-23T05:36:44.438Z,0.57
2024-02-23T05:39:11.856Z,0.60
2024-02-23T05:41:38.935Z,0.70
2024-02-23T05:44:07.431Z,0.60
2024-02-23T05:46:36.220Z,0.67
2024-02-23T05:49:05.410Z,0.50
2024-02-23T05:51:32.811Z,0.60
2024-02-23T05:54:00.071Z,0.60
2024-02-23T05:56:27.069Z,0.80
2024-02-23T05:58:54.395Z,0.93
2024-02-23T06:01:21.597Z,0.67
2024-02-23T06:03:48.467Z,0.90
2024-02-23T06:06:16.033Z,0.70
2024-02-23T06:08:43.103Z,0.87
2024-02-23T06:11:11.666Z,0.50
2024-02-23T06:13:39.067Z,0.67
2024-02-23T06:16:12.054Z,0.80
2024-02-23T06:18:42.438Z,0.70
2024-02-23T06:21:15.007Z,0.70
2024-02-23T06:23:42.850Z,1.13
2024-02-23T06:26:09.947Z,0.60
2024-02-23T06:28:38.303Z,0.70
2024-02-23T06:31:06.634Z,0.80
2024-02-23T06:33:33.755Z,0.80
2024-02-23T06:36:01.125Z,0.70
2024-02-23T06:38:29.811Z,0.87
2024-02-23T06:40:57.610Z,0.50
2024-02-23T06:43:24.579Z,0.50
2024-02-23T06:45:52.325Z,0.80
2024-02-23T06:48:19.952Z,0.93
2024-02-23T06:50:47.208Z,0.70
2024-02-23T06:53:14.324Z,0.93
2024-02-23T06:55:42.843Z,0.90
2024-02-23T06:58:11.570Z,1.10
2024-02-23T07:00:39.803Z,0.80
2024-02-23T07:03:06.716Z,1.13
2024-02-23T07:05:33.987Z,0.87
2024-02-23T07:08:01.260Z,0.70
2024-02-23T07:10:28.584Z,0.90
2024-02-23T07:12:56.935Z,0.87
2024-02-23T07:15:23.977Z,0.73
2024-02-23T07:17:50.941Z,0.80
2024-02-23T07:20:20.918Z,1.07
2024-02-23T07:22:48.407Z,0.93
2024-02-23T07:25:21.945Z,0.90
2024-02-23T07:27:50.192Z,1.00
2024-02-23T07:30:17.908Z,1.20
2024-02-23T07:32:51.267Z,1.03
2024-02-23T07:35:20.914Z,0.83
2024-02-23T07:37:48.062Z,0.80
2024-02-23T07:40:22.604Z,1.07
2024-02-23T07:42:49.897Z,0.80
2024-02-23T07:45:16.929Z,0.97
2024-02-23T07:47:43.997Z,1.33
2024-02-23T07:50:11.325Z,1.30
2024-02-23T07:52:39.797Z,1.63
2024-02-23T07:55:07.539Z,1.10
2024-02-23T07:57:35.799Z,0.77
2024-02-23T08:00:02.861Z,0.77
2024-02-23T08:02:29.849Z,1.10
2024-02-23T08:04:56.968Z,1.10
2024-02-23T08:07:24.313Z,1.00
2024-02-23T08:09:51.249Z,1.13
2024-02-23T08:12:21.455Z,0.90
2024-02-23T08:14:50.572Z,1.20
2024-02-23T08:17:17.706Z,1.20
2024-02-23T08:19:44.694Z,1.47
2024-02-23T08:22:11.632Z,1.50
2024-02-23T08:24:38.512Z,1.80
2024-02-23T08:27:05.758Z,1.20
2024-02-23T08:29:33.046Z,1.10
2024-02-23T08:32:00.039Z,1.47
2024-02-23T08:34:27.036Z,1.17
2024-02-23T08:36:54.043Z,1.00
2024-02-23T08:39:23.411Z,1.27
2024-02-23T08:41:52.640Z,0.70
2024-02-23T08:44:19.699Z,0.90
2024-02-23T08:46:46.629Z,1.00
2024-02-23T08:49:13.608Z,1.47
2024-02-23T08:51:41.200Z,0.80
2024-02-23T08:54:09.321Z,1.20
2024-02-23T08:56:43.914Z,1.07
2024-02-23T08:59:11.363Z,1.40
2024-02-23T09:01:38.448Z,1.40
2024-02-23T09:04:05.654Z,1.03
2024-02-23T09:06:37.763Z,1.27
2024-02-23T09:09:06.707Z,1.20
2024-02-23T09:11:33.724Z,1.10
2024-02-23T09:14:00.866Z,1.00
2024-02-23T09:16:28.084Z,1.60
2024-02-23T09:18:54.932Z,1.00
2024-02-23T09:21:22.277Z,1.70
2024-02-23T09:23:49.752Z,1.23
2024-02-23T09:26:17.190Z,1.47
2024-02-23T09:28:46.106Z,0.97
2024-02-23T09:31:13.059Z,1.40
2024-02-23T09:33:40.113Z,1.00
2024-02-23T09:36:07.335Z,1.00
2024-02-23T09:38:34.376Z,1.10
2024-02-23T09:41:02.129Z,0.73
2024-02-23T09:43:33.577Z,1.23
2024-02-23T09:46:01.741Z,0.97
2024-02-23T09:48:29.563Z,1.10
2024-02-23T09:50:58.943Z,1.20
2024-02-23T09:53:26.094Z,0.83
2024-02-23T09:55:54.784Z,0.83
2024-02-23T09:58:22.982Z,0.90
2024-02-23T10:00:51.151Z,1.03
2024-02-23T10:03:18.133Z,1.10
2024-02-23T10:05:47.074Z,0.98
2024-02-23T10:08:14.432Z,0.87
2024-02-23T10:10:43.019Z,0.68
2024-02-23T10:13:10.074Z,0.97
2024-02-23T10:15:37.122Z,0.80
2024-02-23T10:18:05.098Z,0.70
2024-02-23T10:20:32.801Z,1.30
2024-02-23T10:23:00.336Z,1.17
2024-02-23T10:25:27.314Z,0.70
2024-02-23T10:27:54.190Z,0.90
2024-02-23T10:30:21.176Z,0.97
2024-02-23T10:32:49.854Z,1.25
2024-02-23T10:35:21.526Z,1.03
2024-02-23T10:37:52.318Z,0.77
2024-02-23T10:40:27.814Z,1.20
2024-02-23T10:43:03.541Z,0.83
2024-02-23T10:45:30.926Z,0.70
2024-02-23T10:48:00.105Z,1.48
2024-02-23T10:50:27.805Z,0.80
2024-02-23T10:52:56.861Z,0.90
2024-02-23T10:55:27.916Z,0.93
2024-02-23T10:57:57.540Z,1.15
2024-02-23T11:00:26.781Z,1.10
2024-02-23T11:02:56.989Z,0.85
2024-02-23T11:05:26.047Z,0.93
2024-02-23T11:07:56.905Z,0.93
2024-02-23T11:10:29.129Z,0.80
2024-02-23T11:13:01.474Z,0.80
2024-02-23T11:15:30.244Z,1.10
2024-02-23T11:17:57.572Z,0.90
2024-02-23T11:20:30.325Z,0.90
2024-02-23T11:23:01.421Z,0.85
2024-02-23T11:25:28.763Z,0.90
2024-02-23T11:27:55.653Z,0.70
2024-02-23T11:30:22.654Z,0.82
2024-02-23T11:32:52.861Z,0.80
2024-02-23T11:35:20.517Z,0.70
2024-02-23T11:38:05.344Z,1.02
2024-02-23T11:40:32.770Z,0.88
2024-02-23T11:43:03.307Z,1.10
2024-02-23T11:45:32.450Z,1.17
2024-02-23T11:48:00.773Z,0.73
2024-02-23T11:50:28.104Z,0.90
2024-02-23T11:52:55.411Z,0.90
2024-02-23T11:55:23.842Z,0.70
2024-02-23T11:57:58.511Z,1.17
2024-02-23T12:00:32.400Z,0.60
2024-02-23T12:02:59.460Z,0.82
2024-02-23T12:05:26.538Z,0.80
2024-02-23T12:07:54.540Z,1.20
2024-02-23T12:10:22.285Z,0.77
2024-02-23T12:12:50.322Z,0.80
2024-02-23T12:15:17.473Z,0.60
2024-02-23T12:17:51.625Z,1.15
2024-02-23T12:20:19.284Z,0.80
2024-02-23T12:22:46.656Z,0.80
2024-02-23T12:25:14.587Z,0.80
2024-02-23T12:27:42.573Z,0.70
2024-02-23T12:30:19.028Z,0.88
2024-02-23T12:32:46.339Z,1.15
2024-02-23T12:35:14.371Z,0.50
2024-02-23T12:37:44.693Z,0.80
2024-02-23T12:40:13.714Z,1.08
2024-02-23T12:42:40.986Z,0.93
2024-02-23T12:45:08.395Z,0.82
2024-02-23T12:47:35.582Z,0.68
2024-02-23T12:50:03.053Z,0.90
2024-02-23T12:52:30.214Z,0.90
2024-02-23T12:54:57.087Z,1.13
2024-02-23T12:57:23.972Z,0.73
2024-02-23T12:59:50.841Z,0.82
2024-02-23T13:02:18.186Z,0.60
2024-02-23T13:04:49.942Z,0.50
2024-02-23T13:07:18.238Z,0.70
2024-02-23T13:09:45.974Z,0.60
2024-02-23T13:12:13.194Z,0.60
2024-02-23T13:14:40.329Z,0.80
2024-02-23T13:17:07.342Z,0.60
2024-02-23T13:19:34.282Z,0.60
2024-02-23T13:22:03.923Z,0.70
2024-02-23T13:24:30.879Z,0.82
2024-02-23T13:26:57.791Z,0.75
2024-02-23T13:29:24.690Z,1.48
2024-02-23T13:31:51.669Z,0.70
2024-02-23T13:34:19.547Z,0.65
2024-02-23T13:36:54.817Z,0.57
2024-02-23T13:39:21.947Z,0.60
2024-02-23T13:41:48.939Z,0.68
2024-02-23T13:44:16.443Z,0.98
2024-02-23T13:46:43.414Z,0.85
2024-02-23T13:49:11.060Z,0.50
2024-02-23T13:51:38.614Z,0.98
2024-02-23T13:54:06.280Z,0.88
2024-02-23T13:56:33.210Z,0.80
2024-02-23T13:59:06.600Z,0.98
2024-02-23T14:01:33.573Z,1.15
2024-02-23T14:04:00.693Z,0.77
2024-02-23T14:06:27.785Z,0.90
2024-02-23T14:08:54.779Z,0.80
2024-02-23T14:11:21.904Z,1.00
2024-02-23T14:13:51.039Z,0.65
2024-02-23T14:16:19.007Z,1.08
2024-02-23T14:18:45.896Z,0.82
2024-02-23T14:21:15.520Z,0.70
2024-02-23T14:23:42.707Z,0.75
2024-02-23T14:26:10.902Z,0.82
2024-02-23T14:28:37.880Z,0.68
2024-02-23T14:31:05.350Z,0.65
2024-02-23T14:33:33.424Z,0.55
2024-02-23T14:36:00.482Z,0.70
2024-02-23T14:38:27.618Z,0.60
2024-02-23T14:40:54.919Z,0.40
2024-02-23T14:43:21.846Z,0.55
2024-02-23T14:45:48.762Z,0.50
2024-02-23T14:48:15.915Z,0.50
2024-02-23T14:50:42.884Z,0.70
2024-02-23T14:53:09.908Z,0.88
2024-02-23T14:55:37.070Z,0.60
2024-02-23T14:58:04.683Z,0.70
2024-02-23T15:00:31.660Z,0.50
2024-02-23T15:02:58.712Z,1.00
2024-02-23T15:05:25.973Z,0.98
2024-02-23T15:07:53.152Z,0.70
2024-02-23T15:10:20.741Z,0.60
2024-02-23T15:12:47.714Z,0.60
2024-02-23T15:15:15.252Z,0.60
2024-02-23T15:17:43.524Z,0.65
2024-02-23T15:20:11.345Z,0.70
2024-02-23T15:22:43.375Z,0.50
2024-02-23T15:25:10.678Z,0.65
2024-02-23T15:27:38.431Z,0.80
2024-02-23T15:30:10.373Z,0.60
2024-02-23T15:32:38.510Z,0.68
2024-02-23T15:35:06.497Z,0.70
2024-02-23T15:37:34.302Z,0.77
2024-02-23T15:40:01.257Z,0.60
2024-02-23T15:42:28.280Z,0.80
2024-02-23T15:44:55.881Z,0.80
2024-02-23T15:47:23.782Z,0.90
2024-02-23T15:50:08.545Z,0.60
2024-02-23T15:52:38.165Z,0.63
2024-02-23T15:55:05.844Z,0.68
2024-02-23T15:57:32.984Z,0.70
2024-02-23T16:00:03.325Z,0.68
2024-02-23T16:02:31.949Z,0.80
2024-02-23T16:04:59.087Z,0.88
2024-02-23T16:07:26.099Z,0.70
2024-02-23T16:09:53.116Z,0.63
2024-02-23T16:12:20.134Z,0.70
2024-02-23T16:14:47.163Z,1.00
2024-02-23T16:17:14.135Z,1.00
2024-02-23T16:19:41.735Z,0.80
2024-02-23T16:22:08.695Z,0.90
2024-02-23T16:24:35.666Z,0.70
2024-02-23T16:27:03.605Z,0.80
2024-02-23T16:29:31.403Z,0.80
2024-02-23T16:31:59.169Z,0.80
2024-02-23T16:34:26.197Z,0.80
2024-02-23T16:36:53.142Z,0.73
2024-02-23T16:39:20.133Z,0.60
2024-02-23T16:41:47.244Z,0.67
2024-02-23T16:44:17.724Z,0.93
2024-02-23T16:46:44.826Z,0.77
2024-02-23T16:49:11.811Z,0.80
2024-02-23T16:51:38.821Z,1.03
2024-02-23T16:54:06.044Z,0.97
2024-02-23T16:56:33.035Z,0.73
2024-02-23T16:58:59.977Z,1.07
2024-02-23T17:01:27.140Z,0.80
2024-02-23T17:03:54.112Z,1.53
2024-02-23T17:06:21.108Z,0.80
2024-02-23T17:08:53.579Z,0.90
2024-02-23T17:11:21.135Z,1.07
2024-02-23T17:13:48.792Z,0.90
2024-02-23T17:16:15.774Z,1.53
2024-02-23T17:18:42.793Z,1.63
2024-02-23T17:21:13.956Z,1.90
2024-02-23T17:23:40.969Z,1.50
2024-02-23T17:26:07.987Z,1.33
2024-02-23T17:28:35.041Z,1.40
2024-02-23T17:31:02.050Z,1.00
2024-02-23T17:33:31.993Z,1.30
2024-02-23T17:35:58.941Z,1.20
2024-02-23T17:38:25.857Z,1.30
2024-02-23T17:40:54.448Z,1.87
2024-02-23T17:43:24.163Z,1.40
2024-02-23T17:45:51.126Z,1.23
2024-02-23T17:48:18.091Z,1.47
2024-02-23T17:50:45.240Z,1.90
2024-02-23T17:53:12.325Z,1.67
2024-02-23T17:55:39.319Z,1.47
2024-02-23T17:58:12.600Z,2.13
2024-02-23T18:00:46.821Z,1.60
2024-02-23T18:03:13.815Z,1.70
2024-02-23T18:05:40.713Z,2.20
2024-02-23T18:08:09.125Z,2.73
2024-02-23T18:10:36.780Z,2.37
2024-02-23T18:13:04.023Z,2.80
2024-02-23T18:15:31.002Z,2.23
2024-02-23T18:17:58.198Z,3.00
2024-02-23T18:20:25.357Z,2.10
2024-02-23T18:22:52.312Z,2.87
2024-02-23T18:25:19.316Z,2.80
2024-02-23T18:27:46.318Z,3.50
2024-02-23T18:30:14.028Z,3.60
2024-02-23T18:32:42.076Z,4.43
2024-02-23T18:35:10.261Z,4.00
2024-02-23T18:37:37.625Z,5.03
2024-02-23T18:40:06.247Z,4.60
2024-02-23T18:42:33.185Z,5.00
2024-02-23T18:45:00.409Z,5.67
2024-02-23T18:47:27.455Z,4.80
2024-02-23T18:49:54.427Z,4.97
2024-02-23T18:52:21.349Z,4.10
2024-02-23T18:54:49.242Z,2.90
2024-02-23T18:57:16.252Z,2.10
2024-02-23T18:59:43.351Z,2.00
2024-02-23T19:02:10.321Z,2.13
2024-02-23T19:04:37.598Z,1.70
2024-02-23T19:07:04.769Z,1.60
2024-02-23T19:09:31.671Z,1.63
2024-02-23T19:11:58.901Z,1.87
2024-02-23T19:14:26.376Z,1.50
2024-02-23T19:16:53.478Z,1.50
2024-02-23T19:19:20.857Z,1.57
2024-02-23T19:21:47.866Z,1.50
2024-02-23T19:24:14.794Z,1.30
2024-02-23T19:26:43.370Z,1.30
2024-02-23T19:29:10.897Z,1.70
2024-02-23T19:31:38.001Z,1.63
2024-02-23T19:34:07.256Z,1.30
2024-02-23T19:36:34.463Z,1.50
2024-02-23T19:39:01.578Z,1.63
2024-02-23T19:41:28.647Z,1.80
2024-02-23T19:43:55.608Z,1.97
2024-02-23T19:46:23.135Z,1.20
2024-02-23T19:48:50.170Z,1.57
2024-02-23T19:51:17.905Z,1.40
2024-02-23T19:53:45.000Z,1.30
2024-02-23T19:56:13.907Z,1.20
2024-02-23T19:58:41.016Z,1.70
2024-02-23T20:01:08.028Z,1.10
2024-02-23T20:03:35.045Z,1.97
2024-02-23T20:06:02.137Z,1.00
2024-02-23T20:08:29.235Z,1.30
2024-02-23T20:10:56.420Z,1.00
2024-02-23T20:13:23.362Z,1.33
2024-02-23T20:15:53.700Z,1.70
2024-02-23T20:18:20.741Z,1.80
2024-02-23T20:20:48.023Z,1.50
2024-02-23T20:23:15.063Z,1.10
2024-02-23T20:25:45.090Z,1.10
2024-02-23T20:28:12.078Z,1.93
2024-02-23T20:30:39.141Z,1.30
2024-02-23T20:33:06.607Z,1.10
2024-02-23T20:35:34.400Z,0.80
2024-02-23T20:38:01.942Z,0.90
2024-02-23T20:40:29.240Z,0.80
2024-02-23T20:42:56.209Z,1.10
2024-02-23T20:45:23.226Z,1.07
2024-02-23T20:47:50.431Z,0.90
2024-02-23T20:50:17.626Z,1.10
2024-02-23T20:52:44.738Z,1.00
2024-02-23T20:55:11.850Z,1.10
2024-02-23T20:57:38.860Z,1.20
2024-02-23T21:00:06.973Z,1.27
2024-02-23T21:02:34.052Z,1.13
2024-02-23T21:05:01.078Z,1.27
2024-02-23T21:07:28.343Z,1.20
2024-02-23T21:09:55.340Z,1.10
2024-02-23T21:12:22.447Z,1.20
2024-02-23T21:14:51.797Z,1.40
2024-02-23T21:17:18.912Z,1.47
2024-02-23T21:19:47.584Z,1.03
2024-02-23T21:22:14.468Z,1.53
2024-02-23T21:24:45.910Z,1.30
2024-02-23T21:27:13.175Z,1.30
2024-02-23T21:29:40.188Z,1.77
2024-02-23T21:32:07.767Z,1.83
2024-02-23T21:34:34.809Z,1.13
2024-02-23T21:37:01.786Z,1.50
2024-02-23T21:39:29.483Z,1.30
2024-02-23T21:41:56.569Z,1.23
2024-02-23T21:44:23.695Z,1.10
2024-02-23T21:46:50.591Z,1.20
2024-02-23T21:49:17.679Z,1.00
2024-02-23T21:51:44.737Z,1.07
2024-02-23T21:54:11.646Z,1.30
2024-02-23T21:56:38.624Z,1.50
2024-02-23T21:59:05.595Z,1.30
2024-02-23T22:01:34.325Z,1.80
2024-02-23T22:04:01.341Z,1.20
2024-02-23T22:06:28.226Z,1.10
2024-02-23T22:08:55.138Z,1.00
2024-02-23T22:11:22.194Z,1.33
2024-02-23T22:13:52.143Z,1.60
2024-02-23T22:16:19.051Z,1.10
2024-02-23T22:18:46.058Z,1.17
2024-02-23T22:21:13.166Z,1.37
2024-02-23T22:23:40.311Z,1.73
2024-02-23T22:26:07.512Z,2.10
2024-02-23T22:28:34.407Z,2.53
2024-02-23T22:31:01.301Z,2.20
2024-02-23T22:33:28.519Z,2.27
2024-02-23T22:35:55.619Z,2.30
2024-02-23T22:38:22.695Z,2.20
2024-02-23T22:40:49.636Z,2.60
2024-02-23T22:43:16.674Z,2.70
2024-02-23T22:45:43.591Z,2.27
2024-02-23T22:48:10.600Z,1.50
2024-02-23T22:50:37.624Z,1.83
2024-02-23T22:53:06.217Z,1.63
2024-02-23T22:55:33.153Z,1.50
2024-02-23T22:58:03.152Z,1.50
2024-02-23T23:00:30.150Z,1.30
2024-02-23T23:02:57.079Z,1.33
2024-02-23T23:05:26.280Z,1.30
2024-02-23T23:07:53.379Z,1.50
2024-02-23T23:10:20.462Z,1.80
2024-02-23T23:12:47.552Z,1.30
2024-02-23T23:15:14.498Z,1.33
2024-02-23T23:17:41.495Z,1.50
2024-02-23T23:20:09.340Z,1.17
2024-02-23T23:22:36.555Z,1.20
2024-02-23T23:25:03.770Z,1.20
2024-02-23T23:27:30.705Z,1.03
2024-02-23T23:29:57.719Z,1.03
2024-02-23T23:32:24.778Z,0.93
2024-02-23T23:34:53.413Z,1.50
2024-02-23T23:37:20.529Z,1.20
2024-02-23T23:39:47.394Z,1.20
2024-02-23T23:42:14.443Z,1.20
2024-02-23T23:44:41.481Z,1.50
2024-02-23T23:47:08.559Z,1.50
2024-02-23T23:49:35.496Z,1.20
2024-02-23T23:52:04.923Z,1.60
2024-02-23T23:54:32.514Z,1.33
2024-02-23T23:56:59.840Z,1.20
2024-02-23T23:59:27.059Z,1.67
